createdAt,value
2019-03-27T00:03:21.286Z,5.25
2019-03-27T00:08:18.066Z,5.11
2019-03-27T00:13:14.018Z,5.39
2019-03-27T00:18:10.133Z,5.02
2019-03-27T00:23:06.049Z,4.92
2019-03-27T00:28:01.967Z,4.71
2019-03-27T00:32:57.894Z,4.49
2019-03-27T00:37:53.811Z,4.47
2019-03-27T00:42:49.727Z,4.44
2019-03-27T00:47:45.732Z,4.38
2019-03-27T00:52:41.646Z,4.75
2019-03-27T00:57:37.569Z,4.52
2019-03-27T01:02:33.493Z,4.29
2019-03-27T01:07:29.492Z,4.79
2019-03-27T01:12:25.417Z,4.76
2019-03-27T01:17:21.388Z,5.02
2019-03-27T01:22:17.317Z,5.02
2019-03-27T01:27:13.235Z,4.77
2019-03-27T01:32:09.152Z,4.48
2019-03-27T01:37:05.230Z,4.48
2019-03-27T01:42:01.149Z,4.39
2019-03-27T01:46:57.062Z,4.31
2019-03-27T01:51:53.081Z,4.14
2019-03-27T01:56:49.073Z,4.74
2019-03-27T02:01:44.996Z,5.15
2019-03-27T02:06:43.543Z,5.06
2019-03-27T02:11:39.559Z,5.07
2019-03-27T02:16:35.473Z,4.82
2019-03-27T02:21:31.384Z,4.46
2019-03-27T02:26:27.305Z,4.43
2019-03-27T02:31:23.398Z,4.35
2019-03-27T02:36:19.316Z,4.53
2019-03-27T02:41:15.234Z,4.81
2019-03-27T02:46:23.689Z,4.44
2019-03-27T02:51:08.988Z,4.28
2019-03-27T02:56:05.074Z,4.29
2019-03-27T03:01:00.992Z,4.26
2019-03-27T03:05:56.915Z,4.17
2019-03-27T03:10:52.870Z,4.10
2019-03-27T03:15:48.787Z,4.28
2019-03-27T03:20:44.730Z,4.06
2019-03-27T03:25:40.683Z,4.21
2019-03-27T03:30:36.632Z,4.26
2019-03-27T03:35:32.589Z,4.40
2019-03-27T03:40:28.516Z,4.16
2019-03-27T03:45:24.446Z,4.15
2019-03-27T03:50:40.906Z,4.17
2019-03-27T03:55:37.506Z,4.14
2019-03-27T04:00:33.554Z,4.75
2019-03-27T04:05:29.477Z,4.42
2019-03-27T04:10:25.523Z,4.25
2019-03-27T04:15:21.542Z,4.27
2019-03-27T04:20:17.475Z,5.02
2019-03-27T04:25:14.947Z,4.68
2019-03-27T04:30:11.882Z,4.51
2019-03-27T04:35:10.609Z,4.64
2019-03-27T04:40:08.782Z,4.60
2019-03-27T04:45:05.663Z,4.63
2019-03-27T04:50:03.753Z,4.73
2019-03-27T04:55:00.503Z,4.56
2019-03-27T04:59:56.394Z,4.70
2019-03-27T05:04:52.731Z,4.99
2019-03-27T05:09:48.647Z,5.44
2019-03-27T05:14:44.598Z,5.15
2019-03-27T05:19:40.621Z,5.13
2019-03-27T05:24:37.330Z,5.50
2019-03-27T05:29:33.218Z,5.61
2019-03-27T05:34:29.177Z,5.46
2019-03-27T05:39:25.118Z,5.38
2019-03-27T05:44:21.048Z,5.32
2019-03-27T05:49:16.967Z,5.45
2019-03-27T05:54:16.456Z,5.49
2019-03-27T05:59:12.479Z,5.56
2019-03-27T06:04:08.407Z,5.59
2019-03-27T06:09:04.933Z,5.66
2019-03-27T06:14:00.863Z,5.75
2019-03-27T06:18:56.777Z,5.95
2019-03-27T06:23:53.361Z,5.80
2019-03-27T06:28:49.284Z,5.67
2019-03-27T06:33:45.223Z,5.89
2019-03-27T06:38:41.142Z,5.65
2019-03-27T06:43:37.158Z,5.87
2019-03-27T06:48:33.070Z,5.67
2019-03-27T06:53:28.989Z,5.90
2019-03-27T06:58:25.016Z,5.82
2019-03-27T07:03:20.931Z,5.76
2019-03-27T07:08:16.865Z,5.76
2019-03-27T07:13:12.796Z,5.92
2019-03-27T07:18:08.802Z,6.02
2019-03-27T07:23:04.724Z,6.14
2019-03-27T07:28:00.655Z,6.14
2019-03-27T07:32:56.577Z,6.26
2019-03-27T07:37:52.507Z,6.22
2019-03-27T07:42:48.468Z,6.17
2019-03-27T07:47:44.443Z,6.28
2019-03-27T07:52:40.366Z,6.46
2019-03-27T07:57:36.365Z,6.61
2019-03-27T08:02:32.345Z,6.53
2019-03-27T08:07:28.292Z,6.65
2019-03-27T08:12:24.208Z,6.90
2019-03-27T08:17:20.241Z,6.78
2019-03-27T08:22:16.179Z,7.14
2019-03-27T08:27:14.566Z,7.17
2019-03-27T08:32:10.068Z,7.03
2019-03-27T08:37:05.988Z,7.23
2019-03-27T08:42:01.909Z,7.48
2019-03-27T08:46:57.849Z,6.96
2019-03-27T08:51:53.770Z,7.26
2019-03-27T08:56:49.711Z,7.43
2019-03-27T09:01:45.739Z,7.78
2019-03-27T09:06:41.648Z,7.70
2019-03-27T09:11:37.572Z,8.07
2019-03-27T09:16:33.487Z,7.98
2019-03-27T09:21:29.414Z,7.39
2019-03-27T09:26:25.519Z,7.61
2019-03-27T09:31:21.440Z,7.66
2019-03-27T09:36:17.425Z,7.97
2019-03-27T09:41:13.344Z,8.08
2019-03-27T09:46:12.093Z,9.24
2019-03-27T09:51:10.950Z,9.29
2019-03-27T09:56:18.436Z,8.75
2019-03-27T10:01:12.175Z,9.05
2019-03-27T10:11:26.048Z,9.18
2019-03-27T10:16:22.073Z,8.74
2019-03-27T10:21:18.098Z,9.19
2019-03-27T10:26:14.110Z,9.30
2019-03-27T10:31:10.062Z,9.73
2019-03-27T10:36:06.012Z,9.06
2019-03-27T10:41:01.924Z,9.23
2019-03-27T10:46:02.990Z,9.38
2019-03-27T10:50:59.414Z,9.64
2019-03-27T10:55:55.380Z,10.16
2019-03-27T11:00:51.310Z,10.30
2019-03-27T11:05:47.243Z,10.05
2019-03-27T11:10:43.151Z,9.99
2019-03-27T11:15:39.075Z,9.89
2019-03-27T11:20:35.617Z,10.26
2019-03-27T11:25:33.274Z,10.02
2019-03-27T11:30:53.849Z,10.26
2019-03-27T11:35:51.708Z,10.24
2019-03-27T11:40:48.528Z,10.27
2019-03-27T11:45:44.549Z,11.23
2019-03-27T11:50:45.083Z,11.07
2019-03-27T11:55:38.342Z,10.63
2019-03-27T12:00:34.254Z,9.91
2019-03-27T12:05:30.170Z,10.36
2019-03-27T12:10:26.086Z,10.48
2019-03-27T12:15:36.755Z,10.49
2019-03-27T12:20:32.734Z,10.42
2019-03-27T12:25:28.644Z,10.58
2019-03-27T12:30:24.556Z,10.94
2019-03-27T12:35:20.642Z,10.89
2019-03-27T12:40:16.554Z,10.95
2019-03-27T12:45:12.570Z,10.86
2019-03-27T12:50:08.893Z,11.50
2019-03-27T12:55:05.018Z,11.12
2019-03-27T13:00:01.071Z,10.86
2019-03-27T13:04:57.075Z,10.43
2019-03-27T13:09:52.989Z,10.53
2019-03-27T13:14:50.485Z,11.02
2019-03-27T13:19:46.615Z,11.81
2019-03-27T13:24:43.227Z,11.03
2019-03-27T13:29:39.363Z,10.99
2019-03-27T13:34:35.349Z,11.00
2019-03-27T13:39:32.306Z,11.52
2019-03-27T13:44:36.821Z,11.27
2019-03-27T13:49:26.179Z,11.04
2019-03-27T13:54:25.193Z,11.01
2019-03-27T13:59:21.829Z,11.20
2019-03-27T14:04:17.760Z,11.48
2019-03-27T14:09:15.305Z,11.11
2019-03-27T14:14:13.021Z,11.47
2019-03-27T14:19:09.048Z,11.30
2019-03-27T14:24:08.991Z,11.05
2019-03-27T14:29:05.110Z,11.04
2019-03-27T14:34:01.030Z,11.28
2019-03-27T14:38:56.939Z,11.40
2019-03-27T14:43:52.958Z,11.17
2019-03-27T14:48:48.909Z,11.17
2019-03-27T14:53:52.028Z,11.20
2019-03-27T14:58:49.125Z,11.27
2019-03-27T15:03:45.156Z,11.49
2019-03-27T15:08:42.365Z,11.00
2019-03-27T15:13:38.986Z,11.39
2019-03-27T15:18:35.176Z,10.97
2019-03-27T15:23:35.620Z,11.18
2019-03-27T15:28:32.075Z,11.12
2019-03-27T15:33:30.682Z,11.30
2019-03-27T15:38:26.709Z,11.50
2019-03-27T15:43:22.617Z,11.43
2019-03-27T15:48:18.542Z,11.21
2019-03-27T15:53:14.445Z,11.00
2019-03-27T15:58:10.361Z,11.12
2019-03-27T16:03:09.771Z,11.15
2019-03-27T16:08:14.082Z,10.99
2019-03-27T16:13:11.024Z,11.03
2019-03-27T16:18:09.002Z,11.15
2019-03-27T16:23:05.588Z,11.10
2019-03-27T16:28:02.497Z,11.04
2019-03-27T16:33:02.364Z,11.15
2019-03-27T16:37:59.149Z,11.03
2019-03-27T16:42:56.542Z,11.18
2019-03-27T16:47:52.558Z,11.21
2019-03-27T16:52:48.502Z,11.23
2019-03-27T16:57:44.411Z,11.03
2019-03-27T17:02:40.330Z,10.92
2019-03-27T17:07:36.367Z,10.93
2019-03-27T17:12:32.518Z,11.01
2019-03-27T17:17:28.425Z,10.79
2019-03-27T17:22:24.452Z,10.75
2019-03-27T17:27:20.664Z,10.72
2019-03-27T17:32:16.581Z,10.76
2019-03-27T17:37:12.572Z,10.85
2019-03-27T17:42:08.503Z,10.91
2019-03-27T17:47:04.428Z,10.96
2019-03-27T17:52:01.180Z,10.88
2019-03-27T17:56:57.840Z,10.70
2019-03-27T18:01:53.751Z,10.76
2019-03-27T18:06:49.663Z,10.80
2019-03-27T18:11:46.435Z,10.92
2019-03-27T18:16:42.532Z,10.45
2019-03-27T18:21:38.444Z,10.50
2019-03-27T18:26:36.409Z,10.22
2019-03-27T18:31:33.310Z,10.06
2019-03-27T18:36:30.234Z,10.07
2019-03-27T18:41:27.341Z,10.21
2019-03-27T18:46:23.352Z,10.06
2019-03-27T18:51:20.360Z,9.93
2019-03-27T18:56:16.382Z,9.94
2019-03-27T19:01:13.414Z,9.82
2019-03-27T19:06:10.260Z,9.76
2019-03-27T19:11:07.089Z,9.76
2019-03-27T19:16:03.273Z,9.77
2019-03-27T19:20:59.208Z,9.67
2019-03-27T19:25:55.132Z,10.33
2019-03-27T19:30:51.087Z,10.51
2019-03-27T19:35:47.170Z,10.45
2019-03-27T19:40:43.901Z,10.27
2019-03-27T19:45:40.054Z,10.14
2019-03-27T19:50:36.092Z,10.18
2019-03-27T19:55:32.737Z,9.92
2019-03-27T20:00:28.654Z,9.51
2019-03-27T20:05:24.609Z,9.42
2019-03-27T20:10:20.627Z,9.28
2019-03-27T20:15:16.656Z,9.10
2019-03-27T20:20:12.997Z,9.49
2019-03-27T20:25:14.579Z,9.18
2019-03-27T20:30:16.278Z,9.66
2019-03-27T20:35:13.571Z,9.39
2019-03-27T20:40:10.869Z,9.32
2019-03-27T20:45:08.404Z,9.39
2019-03-27T20:50:06.055Z,9.25
2019-03-27T20:55:04.745Z,9.71
2019-03-27T21:00:00.956Z,10.16
2019-03-27T21:04:59.407Z,10.27
2019-03-27T21:09:55.480Z,10.05
2019-03-27T21:14:51.456Z,10.07
2019-03-27T21:19:47.433Z,9.75
2019-03-27T21:24:44.212Z,9.44
2019-03-27T21:29:40.098Z,9.15
2019-03-27T21:34:36.014Z,9.21
2019-03-27T21:39:32.013Z,9.06
2019-03-27T21:44:27.931Z,9.01
2019-03-27T21:49:23.911Z,9.01
2019-03-27T21:54:22.980Z,9.03
2019-03-27T21:59:18.866Z,9.05
2019-03-27T22:04:14.802Z,8.99
2019-03-27T22:09:10.807Z,8.95
2019-03-27T22:14:06.831Z,8.94
2019-03-27T22:19:02.888Z,8.92
2019-03-27T22:24:10.100Z,8.92
2019-03-27T22:29:06.254Z,8.93
2019-03-27T22:34:02.235Z,8.95
2019-03-27T22:38:58.123Z,8.87
2019-03-27T22:43:54.041Z,8.86
2019-03-27T22:48:50.019Z,8.96
2019-03-27T22:53:47.659Z,9.03
2019-03-27T22:58:43.675Z,8.93
2019-03-27T23:03:42.020Z,8.85
2019-03-27T23:08:38.107Z,8.81
2019-03-27T23:13:34.072Z,8.82
2019-03-27T23:18:29.992Z,8.79
2019-03-27T23:23:25.957Z,8.81
2019-03-27T23:28:21.993Z,8.79
2019-03-27T23:33:20.222Z,8.68
2019-03-27T23:38:15.780Z,8.66
2019-03-27T23:43:11.715Z,8.66
2019-03-27T23:48:07.682Z,8.67
2019-03-27T23:53:03.613Z,8.67
2019-03-27T23:57:59.546Z,8.66
